sensor_id;sensor_type;location;lat;lon;timestamp;P1;durP1;ratioP1;P2;durP2;ratioP2
5752;SDS011;2901;42.140;24.760;2022-12-07T00:01:35;67.47;;;26.77;;
5752;SDS011;2901;42.140;24.760;2022-12-07T00:04:03;51.77;;;26.07;;
5752;SDS011;2901;42.140;24.760;2022-12-07T00:06:34;58.20;;;27.60;;
5752;SDS011;2901;42.140;24.760;2022-12-07T00:09:02;53.40;;;25.50;;
5752;SDS011;2901;42.140;24.760;2022-12-07T00:11:29;55.13;;;26.67;;
5752;SDS011;2901;42.140;24.760;2022-12-07T00:13:58;59.97;;;24.87;;
5752;SDS011;2901;42.140;24.760;2022-12-07T00:16:27;49.40;;;25.47;;
5752;SDS011;2901;42.140;24.760;2022-12-07T00:18:53;45.33;;;26.33;;
5752;SDS011;2901;42.140;24.760;2022-12-07T00:21:23;56.20;;;26.60;;
5752;SDS011;2901;42.140;24.760;2022-12-07T00:23:51;54.27;;;27.27;;
5752;SDS011;2901;42.140;24.760;2022-12-07T00:26:18;45.60;;;25.70;;
5752;SDS011;2901;42.140;24.760;2022-12-07T00:28:49;48.17;;;23.93;;
5752;SDS011;2901;42.140;24.760;2022-12-07T00:31:17;44.53;;;23.80;;
5752;SDS011;2901;42.140;24.760;2022-12-07T00:33:43;35.47;;;21.77;;
5752;SDS011;2901;42.140;24.760;2022-12-07T00:36:10;39.17;;;22.20;;
5752;SDS011;2901;42.140;24.760;2022-12-07T00:38:38;42.97;;;20.47;;
5752;SDS011;2901;42.140;24.760;2022-12-07T00:41:14;34.10;;;20.57;;
5752;SDS011;2901;42.140;24.760;2022-12-07T00:43:41;35.40;;;20.03;;
5752;SDS011;2901;42.140;24.760;2022-12-07T00:46:07;39.33;;;19.67;;
5752;SDS011;2901;42.140;24.760;2022-12-07T00:48:32;36.87;;;20.63;;
5752;SDS011;2901;42.140;24.760;2022-12-07T00:50:58;44.00;;;19.80;;
5752;SDS011;2901;42.140;24.760;2022-12-07T00:53:24;39.73;;;20.90;;
5752;SDS011;2901;42.140;24.760;2022-12-07T00:55:50;33.10;;;19.53;;
5752;SDS011;2901;42.140;24.760;2022-12-07T00:58:17;37.23;;;18.10;;
5752;SDS011;2901;42.140;24.760;2022-12-07T01:00:43;33.97;;;19.23;;
5752;SDS011;2901;42.140;24.760;2022-12-07T01:03:09;38.23;;;20.40;;
5752;SDS011;2901;42.140;24.760;2022-12-07T01:05:36;34.10;;;19.77;;
5752;SDS011;2901;42.140;24.760;2022-12-07T01:08:02;26.50;;;17.57;;
5752;SDS011;2901;42.140;24.760;2022-12-07T01:10:28;28.57;;;17.43;;
5752;SDS011;2901;42.140;24.760;2022-12-07T01:12:55;31.30;;;15.90;;
5752;SDS011;2901;42.140;24.760;2022-12-07T01:15:20;35.67;;;18.20;;
5752;SDS011;2901;42.140;24.760;2022-12-07T01:17:45;29.90;;;17.43;;
5752;SDS011;2901;42.140;24.760;2022-12-07T01:20:11;31.87;;;16.57;;
5752;SDS011;2901;42.140;24.760;2022-12-07T01:22:37;29.63;;;16.57;;
5752;SDS011;2901;42.140;24.760;2022-12-07T01:25:05;32.17;;;15.57;;
5752;SDS011;2901;42.140;24.760;2022-12-07T01:27:32;30.83;;;15.33;;
5752;SDS011;2901;42.140;24.760;2022-12-07T01:29:58;35.30;;;15.40;;
5752;SDS011;2901;42.140;24.760;2022-12-07T01:32:24;32.83;;;17.17;;
5752;SDS011;2901;42.140;24.760;2022-12-07T01:34:49;25.07;;;15.10;;
5752;SDS011;2901;42.140;24.760;2022-12-07T01:37:14;21.53;;;13.63;;
5752;SDS011;2901;42.140;24.760;2022-12-07T01:39:40;22.67;;;14.70;;
5752;SDS011;2901;42.140;24.760;2022-12-07T01:42:09;25.83;;;14.73;;
5752;SDS011;2901;42.140;24.760;2022-12-07T01:47:42;26.70;;;14.57;;
5752;SDS011;2901;42.140;24.760;2022-12-07T01:50:11;26.17;;;14.37;;
5752;SDS011;2901;42.140;24.760;2022-12-07T01:52:38;23.60;;;13.77;;
5752;SDS011;2901;42.140;24.760;2022-12-07T01:55:08;22.93;;;14.97;;
5752;SDS011;2901;42.140;24.760;2022-12-07T01:57:40;25.50;;;15.20;;
5752;SDS011;2901;42.140;24.760;2022-12-07T02:00:07;19.57;;;14.10;;
5752;SDS011;2901;42.140;24.760;2022-12-07T02:02:35;28.60;;;15.50;;
5752;SDS011;2901;42.140;24.760;2022-12-07T02:05:06;27.40;;;15.13;;
5752;SDS011;2901;42.140;24.760;2022-12-07T02:07:32;28.37;;;16.17;;
5752;SDS011;2901;42.140;24.760;2022-12-07T02:10:18;31.03;;;16.27;;
5752;SDS011;2901;42.140;24.760;2022-12-07T02:12:46;24.93;;;16.10;;
5752;SDS011;2901;42.140;24.760;2022-12-07T02:15:16;23.73;;;16.17;;
5752;SDS011;2901;42.140;24.760;2022-12-07T02:23:29;28.57;;;16.10;;
5752;SDS011;2901;42.140;24.760;2022-12-07T02:32:01;26.73;;;16.43;;
5752;SDS011;2901;42.140;24.760;2022-12-07T02:34:44;22.37;;;15.03;;
5752;SDS011;2901;42.140;24.760;2022-12-07T02:40:36;30.13;;;17.17;;
5752;SDS011;2901;42.140;24.760;2022-12-07T02:43:24;18.47;;;13.07;;
5752;SDS011;2901;42.140;24.760;2022-12-07T02:45:53;15.87;;;11.50;;
5752;SDS011;2901;42.140;24.760;2022-12-07T02:48:26;19.60;;;12.77;;
5752;SDS011;2901;42.140;24.760;2022-12-07T02:50:53;25.60;;;12.87;;
5752;SDS011;2901;42.140;24.760;2022-12-07T02:53:32;20.97;;;11.83;;
5752;SDS011;2901;42.140;24.760;2022-12-07T02:56:05;16.87;;;12.07;;
5752;SDS011;2901;42.140;24.760;2022-12-07T03:04:14;19.23;;;11.20;;
5752;SDS011;2901;42.140;24.760;2022-12-07T03:06:50;14.93;;;10.27;;
5752;SDS011;2901;42.140;24.760;2022-12-07T03:09:29;15.40;;;10.05;;
5752;SDS011;2901;42.140;24.760;2022-12-07T03:12:04;14.83;;;10.00;;
5752;SDS011;2901;42.140;24.760;2022-12-07T03:14:41;18.03;;;10.57;;
5752;SDS011;2901;42.140;24.760;2022-12-07T03:17:25;12.00;;;10.03;;
5752;SDS011;2901;42.140;24.760;2022-12-07T03:19:56;14.30;;;9.97;;
5752;SDS011;2901;42.140;24.760;2022-12-07T03:22:24;16.67;;;10.87;;
5752;SDS011;2901;42.140;24.760;2022-12-07T03:24:54;14.67;;;10.50;;
5752;SDS011;2901;42.140;24.760;2022-12-07T03:27:24;33.33;;;12.93;;
5752;SDS011;2901;42.140;24.760;2022-12-07T03:29:56;23.37;;;11.40;;
5752;SDS011;2901;42.140;24.760;2022-12-07T03:35:17;22.47;;;13.03;;
5752;SDS011;2901;42.140;24.760;2022-12-07T03:37:58;25.13;;;12.87;;
5752;SDS011;2901;42.140;24.760;2022-12-07T03:40:37;21.17;;;12.87;;
5752;SDS011;2901;42.140;24.760;2022-12-07T03:43:09;16.20;;;11.43;;
5752;SDS011;2901;42.140;24.760;2022-12-07T03:45:43;19.17;;;11.13;;
5752;SDS011;2901;42.140;24.760;2022-12-07T03:50:45;29.27;;;12.60;;
5752;SDS011;2901;42.140;24.760;2022-12-07T03:53:37;18.00;;;11.27;;
5752;SDS011;2901;42.140;24.760;2022-12-07T03:56:11;17.27;;;11.23;;
5752;SDS011;2901;42.140;24.760;2022-12-07T03:58:37;19.47;;;10.83;;
5752;SDS011;2901;42.140;24.760;2022-12-07T04:01:03;16.60;;;10.10;;
5752;SDS011;2901;42.140;24.760;2022-12-07T04:03:29;14.07;;;8.93;;
5752;SDS011;2901;42.140;24.760;2022-12-07T04:05:54;15.50;;;10.20;;
5752;SDS011;2901;42.140;24.760;2022-12-07T04:08:20;12.97;;;8.77;;
5752;SDS011;2901;42.140;24.760;2022-12-07T04:10:45;17.50;;;9.37;;
5752;SDS011;2901;42.140;24.760;2022-12-07T04:13:10;15.90;;;10.03;;
5752;SDS011;2901;42.140;24.760;2022-12-07T04:15:36;12.27;;;9.20;;
5752;SDS011;2901;42.140;24.760;2022-12-07T04:18:01;15.50;;;12.00;;
5752;SDS011;2901;42.140;24.760;2022-12-07T04:20:27;13.07;;;9.53;;
5752;SDS011;2901;42.140;24.760;2022-12-07T04:22:52;16.63;;;10.50;;
5752;SDS011;2901;42.140;24.760;2022-12-07T04:25:17;18.60;;;9.93;;
5752;SDS011;2901;42.140;24.760;2022-12-07T04:27:43;29.90;;;12.13;;
5752;SDS011;2901;42.140;24.760;2022-12-07T04:30:08;22.50;;;12.10;;
5752;SDS011;2901;42.140;24.760;2022-12-07T04:32:34;27.73;;;13.47;;
5752;SDS011;2901;42.140;24.760;2022-12-07T04:34:59;23.23;;;13.10;;
5752;SDS011;2901;42.140;24.760;2022-12-07T04:37:25;23.87;;;13.67;;
5752;SDS011;2901;42.140;24.760;2022-12-07T04:39:50;21.67;;;13.33;;
5752;SDS011;2901;42.140;24.760;2022-12-07T04:42:16;19.33;;;12.27;;
5752;SDS011;2901;42.140;24.760;2022-12-07T04:44:41;27.63;;;15.03;;
5752;SDS011;2901;42.140;24.760;2022-12-07T04:47:07;29.90;;;13.67;;
5752;SDS011;2901;42.140;24.760;2022-12-07T04:49:32;23.60;;;12.27;;
5752;SDS011;2901;42.140;24.760;2022-12-07T04:51:58;15.93;;;11.23;;
5752;SDS011;2901;42.140;24.760;2022-12-07T04:54:23;30.73;;;13.17;;
5752;SDS011;2901;42.140;24.760;2022-12-07T04:56:49;31.43;;;13.00;;
5752;SDS011;2901;42.140;24.760;2022-12-07T04:59:15;33.37;;;11.13;;
5752;SDS011;2901;42.140;24.760;2022-12-07T05:01:41;41.20;;;14.27;;
5752;SDS011;2901;42.140;24.760;2022-12-07T05:04:07;36.10;;;15.40;;
5752;SDS011;2901;42.140;24.760;2022-12-07T05:06:33;50.63;;;13.77;;
5752;SDS011;2901;42.140;24.760;2022-12-07T05:08:58;30.50;;;12.03;;
5752;SDS011;2901;42.140;24.760;2022-12-07T05:11:23;30.83;;;12.90;;
5752;SDS011;2901;42.140;24.760;2022-12-07T05:14:06;37.03;;;13.53;;
5752;SDS011;2901;42.140;24.760;2022-12-07T05:16:36;31.70;;;11.43;;
5752;SDS011;2901;42.140;24.760;2022-12-07T05:19:03;36.10;;;12.63;;
5752;SDS011;2901;42.140;24.760;2022-12-07T05:21:29;24.73;;;12.03;;
5752;SDS011;2901;42.140;24.760;2022-12-07T05:23:54;29.67;;;14.03;;
5752;SDS011;2901;42.140;24.760;2022-12-07T05:26:20;34.30;;;15.83;;
5752;SDS011;2901;42.140;24.760;2022-12-07T05:28:49;35.40;;;18.70;;
5752;SDS011;2901;42.140;24.760;2022-12-07T05:31:15;41.80;;;19.33;;
5752;SDS011;2901;42.140;24.760;2022-12-07T05:33:40;46.20;;;22.10;;
5752;SDS011;2901;42.140;24.760;2022-12-07T05:36:06;52.67;;;20.87;;
5752;SDS011;2901;42.140;24.760;2022-12-07T05:38:32;47.33;;;20.20;;
5752;SDS011;2901;42.140;24.760;2022-12-07T05:41:01;38.03;;;19.30;;
5752;SDS011;2901;42.140;24.760;2022-12-07T05:43:28;37.37;;;18.50;;
5752;SDS011;2901;42.140;24.760;2022-12-07T05:45:55;57.20;;;21.43;;
5752;SDS011;2901;42.140;24.760;2022-12-07T05:48:21;78.27;;;22.87;;
5752;SDS011;2901;42.140;24.760;2022-12-07T05:50:47;57.00;;;21.43;;
5752;SDS011;2901;42.140;24.760;2022-12-07T05:53:13;33.37;;;18.07;;
5752;SDS011;2901;42.140;24.760;2022-12-07T05:55:39;30.77;;;15.43;;
5752;SDS011;2901;42.140;24.760;2022-12-07T05:58:04;44.27;;;18.43;;
5752;SDS011;2901;42.140;24.760;2022-12-07T06:00:48;38.47;;;19.30;;
5752;SDS011;2901;42.140;24.760;2022-12-07T06:03:14;41.80;;;18.87;;
5752;SDS011;2901;42.140;24.760;2022-12-07T06:05:39;33.93;;;17.70;;
5752;SDS011;2901;42.140;24.760;2022-12-07T06:08:04;29.90;;;15.93;;
5752;SDS011;2901;42.140;24.760;2022-12-07T06:10:30;30.60;;;16.73;;
5752;SDS011;2901;42.140;24.760;2022-12-07T06:12:55;41.47;;;17.27;;
5752;SDS011;2901;42.140;24.760;2022-12-07T06:15:20;33.83;;;16.57;;
5752;SDS011;2901;42.140;24.760;2022-12-07T06:17:48;34.50;;;15.73;;
5752;SDS011;2901;42.140;24.760;2022-12-07T06:20:13;44.60;;;17.77;;
5752;SDS011;2901;42.140;24.760;2022-12-07T06:22:39;28.27;;;17.17;;
5752;SDS011;2901;42.140;24.760;2022-12-07T06:25:04;38.27;;;16.87;;
5752;SDS011;2901;42.140;24.760;2022-12-07T06:27:30;34.30;;;17.20;;
5752;SDS011;2901;42.140;24.760;2022-12-07T06:29:57;32.37;;;18.30;;
5752;SDS011;2901;42.140;24.760;2022-12-07T06:32:23;39.30;;;17.03;;
5752;SDS011;2901;42.140;24.760;2022-12-07T06:34:48;28.07;;;17.00;;
5752;SDS011;2901;42.140;24.760;2022-12-07T06:37:14;29.50;;;16.60;;
5752;SDS011;2901;42.140;24.760;2022-12-07T06:39:39;34.13;;;16.87;;
5752;SDS011;2901;42.140;24.760;2022-12-07T06:42:04;32.93;;;17.20;;
5752;SDS011;2901;42.140;24.760;2022-12-07T06:44:30;29.77;;;17.10;;
5752;SDS011;2901;42.140;24.760;2022-12-07T06:46:55;37.57;;;18.40;;
5752;SDS011;2901;42.140;24.760;2022-12-07T06:49:21;36.00;;;18.17;;
5752;SDS011;2901;42.140;24.760;2022-12-07T06:51:46;39.90;;;19.63;;
5752;SDS011;2901;42.140;24.760;2022-12-07T06:54:12;41.87;;;20.10;;
5752;SDS011;2901;42.140;24.760;2022-12-07T06:56:39;49.13;;;19.33;;
5752;SDS011;2901;42.140;24.760;2022-12-07T06:59:04;38.30;;;17.93;;
5752;SDS011;2901;42.140;24.760;2022-12-07T07:01:31;39.83;;;18.63;;
5752;SDS011;2901;42.140;24.760;2022-12-07T07:03:57;34.33;;;18.63;;
5752;SDS011;2901;42.140;24.760;2022-12-07T07:06:22;34.97;;;17.63;;
5752;SDS011;2901;42.140;24.760;2022-12-07T07:08:47;46.13;;;18.88;;
5752;SDS011;2901;42.140;24.760;2022-12-07T07:11:13;44.93;;;18.50;;
5752;SDS011;2901;42.140;24.760;2022-12-07T07:13:38;43.25;;;19.98;;
5752;SDS011;2901;42.140;24.760;2022-12-07T07:16:04;39.70;;;16.77;;
5752;SDS011;2901;42.140;24.760;2022-12-07T07:18:30;48.40;;;18.70;;
5752;SDS011;2901;42.140;24.760;2022-12-07T07:20:56;38.53;;;19.27;;
5752;SDS011;2901;42.140;24.760;2022-12-07T07:23:22;44.57;;;20.67;;
5752;SDS011;2901;42.140;24.760;2022-12-07T07:25:48;36.85;;;18.42;;
5752;SDS011;2901;42.140;24.760;2022-12-07T07:28:14;30.38;;;17.98;;
5752;SDS011;2901;42.140;24.760;2022-12-07T07:30:40;33.58;;;17.33;;
5752;SDS011;2901;42.140;24.760;2022-12-07T07:33:06;46.55;;;21.88;;
5752;SDS011;2901;42.140;24.760;2022-12-07T07:35:32;34.73;;;18.93;;
5752;SDS011;2901;42.140;24.760;2022-12-07T07:37:58;37.30;;;18.00;;
5752;SDS011;2901;42.140;24.760;2022-12-07T07:40:25;42.78;;;21.83;;
5752;SDS011;2901;42.140;24.760;2022-12-07T07:42:51;37.22;;;21.15;;
5752;SDS011;2901;42.140;24.760;2022-12-07T07:45:18;29.70;;;19.40;;
5752;SDS011;2901;42.140;24.760;2022-12-07T07:47:44;37.95;;;18.02;;
5752;SDS011;2901;42.140;24.760;2022-12-07T07:50:10;37.85;;;17.35;;
5752;SDS011;2901;42.140;24.760;2022-12-07T07:52:35;39.95;;;18.25;;
5752;SDS011;2901;42.140;24.760;2022-12-07T07:55:01;36.75;;;17.88;;
5752;SDS011;2901;42.140;24.760;2022-12-07T07:57:26;31.10;;;17.52;;
5752;SDS011;2901;42.140;24.760;2022-12-07T07:59:52;35.10;;;17.75;;
5752;SDS011;2901;42.140;24.760;2022-12-07T08:02:18;36.60;;;19.90;;
5752;SDS011;2901;42.140;24.760;2022-12-07T08:04:44;32.67;;;18.75;;
5752;SDS011;2901;42.140;24.760;2022-12-07T08:07:10;37.03;;;17.65;;
5752;SDS011;2901;42.140;24.760;2022-12-07T08:09:37;30.23;;;18.15;;
5752;SDS011;2901;42.140;24.760;2022-12-07T08:12:03;28.88;;;16.55;;
5752;SDS011;2901;42.140;24.760;2022-12-07T08:14:28;33.70;;;19.02;;
5752;SDS011;2901;42.140;24.760;2022-12-07T08:16:54;39.10;;;19.25;;
5752;SDS011;2901;42.140;24.760;2022-12-07T08:19:19;56.08;;;23.27;;
5752;SDS011;2901;42.140;24.760;2022-12-07T08:21:45;34.90;;;19.85;;
5752;SDS011;2901;42.140;24.760;2022-12-07T08:24:10;39.38;;;21.92;;
5752;SDS011;2901;42.140;24.760;2022-12-07T08:26:36;50.75;;;21.88;;
5752;SDS011;2901;42.140;24.760;2022-12-07T08:29:02;39.42;;;20.73;;
5752;SDS011;2901;42.140;24.760;2022-12-07T08:31:27;38.63;;;21.80;;
5752;SDS011;2901;42.140;24.760;2022-12-07T08:33:53;40.10;;;23.02;;
5752;SDS011;2901;42.140;24.760;2022-12-07T08:36:19;46.58;;;21.90;;
5752;SDS011;2901;42.140;24.760;2022-12-07T08:38:44;40.53;;;22.67;;
5752;SDS011;2901;42.140;24.760;2022-12-07T08:41:10;37.05;;;22.50;;
5752;SDS011;2901;42.140;24.760;2022-12-07T08:43:36;33.53;;;22.88;;
5752;SDS011;2901;42.140;24.760;2022-12-07T08:48:37;35.03;;;21.48;;
5752;SDS011;2901;42.140;24.760;2022-12-07T08:51:09;44.03;;;22.20;;
5752;SDS011;2901;42.140;24.760;2022-12-07T08:53:36;35.20;;;21.45;;
5752;SDS011;2901;42.140;24.760;2022-12-07T08:56:03;36.10;;;22.80;;
5752;SDS011;2901;42.140;24.760;2022-12-07T08:58:29;38.80;;;21.70;;
5752;SDS011;2901;42.140;24.760;2022-12-07T09:00:54;45.97;;;24.33;;
5752;SDS011;2901;42.140;24.760;2022-12-07T09:03:20;38.13;;;24.35;;
5752;SDS011;2901;42.140;24.760;2022-12-07T09:05:45;42.92;;;22.75;;
5752;SDS011;2901;42.140;24.760;2022-12-07T09:08:10;40.40;;;23.98;;
5752;SDS011;2901;42.140;24.760;2022-12-07T09:10:36;41.15;;;21.98;;
5752;SDS011;2901;42.140;24.760;2022-12-07T09:13:02;36.72;;;24.00;;
5752;SDS011;2901;42.140;24.760;2022-12-07T09:15:28;39.28;;;23.55;;
5752;SDS011;2901;42.140;24.760;2022-12-07T09:17:54;39.60;;;23.05;;
5752;SDS011;2901;42.140;24.760;2022-12-07T09:20:20;35.05;;;21.55;;
5752;SDS011;2901;42.140;24.760;2022-12-07T09:22:45;40.70;;;23.27;;
5752;SDS011;2901;42.140;24.760;2022-12-07T09:25:11;40.33;;;23.67;;
5752;SDS011;2901;42.140;24.760;2022-12-07T09:27:36;43.58;;;24.50;;
5752;SDS011;2901;42.140;24.760;2022-12-07T09:30:02;42.05;;;24.27;;
5752;SDS011;2901;42.140;24.760;2022-12-07T09:32:28;45.15;;;24.02;;
5752;SDS011;2901;42.140;24.760;2022-12-07T09:34:54;41.08;;;23.95;;
5752;SDS011;2901;42.140;24.760;2022-12-07T09:37:20;51.33;;;25.17;;
5752;SDS011;2901;42.140;24.760;2022-12-07T09:39:45;47.15;;;24.73;;
5752;SDS011;2901;42.140;24.760;2022-12-07T09:42:11;39.35;;;22.98;;
5752;SDS011;2901;42.140;24.760;2022-12-07T09:44:55;42.08;;;23.50;;
5752;SDS011;2901;42.140;24.760;2022-12-07T09:47:21;45.42;;;22.88;;
5752;SDS011;2901;42.140;24.760;2022-12-07T09:49:46;42.83;;;23.73;;
5752;SDS011;2901;42.140;24.760;2022-12-07T09:54:39;42.85;;;24.42;;
5752;SDS011;2901;42.140;24.760;2022-12-07T09:57:08;52.53;;;26.67;;
5752;SDS011;2901;42.140;24.760;2022-12-07T09:59:37;44.28;;;24.67;;
5752;SDS011;2901;42.140;24.760;2022-12-07T10:05:03;45.67;;;25.90;;
5752;SDS011;2901;42.140;24.760;2022-12-07T10:07:31;49.47;;;26.00;;
5752;SDS011;2901;42.140;24.760;2022-12-07T10:09:57;47.33;;;26.55;;
5752;SDS011;2901;42.140;24.760;2022-12-07T10:12:22;45.22;;;25.27;;
5752;SDS011;2901;42.140;24.760;2022-12-07T10:14:55;41.33;;;26.88;;
5752;SDS011;2901;42.140;24.760;2022-12-07T10:22:54;41.35;;;22.63;;
5752;SDS011;2901;42.140;24.760;2022-12-07T10:25:26;36.83;;;21.67;;
5752;SDS011;2901;42.140;24.760;2022-12-07T10:27:58;33.03;;;21.52;;
5752;SDS011;2901;42.140;24.760;2022-12-07T10:30:26;31.45;;;19.30;;
5752;SDS011;2901;42.140;24.760;2022-12-07T10:32:52;33.83;;;20.70;;
5752;SDS011;2901;42.140;24.760;2022-12-07T10:37:43;37.13;;;21.40;;
5752;SDS011;2901;42.140;24.760;2022-12-07T10:43:12;39.25;;;19.98;;
5752;SDS011;2901;42.140;24.760;2022-12-07T10:46:02;42.30;;;19.77;;
5752;SDS011;2901;42.140;24.760;2022-12-07T11:11:14;29.00;;;16.65;;
5752;SDS011;2901;42.140;24.760;2022-12-07T11:14:10;31.10;;;17.75;;
5752;SDS011;2901;42.140;24.760;2022-12-07T11:25:13;43.78;;;21.50;;
5752;SDS011;2901;42.140;24.760;2022-12-07T11:30:33;31.73;;;18.88;;
5752;SDS011;2901;42.140;24.760;2022-12-07T11:36:03;35.47;;;20.00;;
5752;SDS011;2901;42.140;24.760;2022-12-07T11:38:55;35.63;;;19.17;;
5752;SDS011;2901;42.140;24.760;2022-12-07T11:41:25;25.55;;;17.05;;
5752;SDS011;2901;42.140;24.760;2022-12-07T11:44:00;24.08;;;16.33;;
5752;SDS011;2901;42.140;24.760;2022-12-07T11:46:56;27.25;;;16.83;;
5752;SDS011;2901;42.140;24.760;2022-12-07T11:49:49;36.42;;;17.92;;
5752;SDS011;2901;42.140;24.760;2022-12-07T11:52:22;37.65;;;17.10;;
5752;SDS011;2901;42.140;24.760;2022-12-07T11:54:50;35.03;;;17.70;;
5752;SDS011;2901;42.140;24.760;2022-12-07T11:57:27;22.70;;;15.68;;
5752;SDS011;2901;42.140;24.760;2022-12-07T12:00:12;25.02;;;15.45;;
5752;SDS011;2901;42.140;24.760;2022-12-07T12:02:48;25.85;;;16.02;;
5752;SDS011;2901;42.140;24.760;2022-12-07T12:05:21;24.40;;;15.02;;
5752;SDS011;2901;42.140;24.760;2022-12-07T12:16:13;22.48;;;16.58;;
5752;SDS011;2901;42.140;24.760;2022-12-07T12:21:44;28.42;;;16.70;;
5752;SDS011;2901;42.140;24.760;2022-12-07T12:24:14;30.52;;;16.00;;
5752;SDS011;2901;42.140;24.760;2022-12-07T12:26:50;47.63;;;19.65;;
5752;SDS011;2901;42.140;24.760;2022-12-07T12:29:34;37.40;;;17.15;;
5752;SDS011;2901;42.140;24.760;2022-12-07T12:32:17;26.58;;;16.40;;
5752;SDS011;2901;42.140;24.760;2022-12-07T12:42:49;23.83;;;15.52;;
5752;SDS011;2901;42.140;24.760;2022-12-07T12:48:04;36.63;;;16.85;;
5752;SDS011;2901;42.140;24.760;2022-12-07T12:50:36;27.85;;;16.95;;
5752;SDS011;2901;42.140;24.760;2022-12-07T12:58:28;24.20;;;13.85;;
5752;SDS011;2901;42.140;24.760;2022-12-07T13:03:55;25.30;;;14.65;;
5752;SDS011;2901;42.140;24.760;2022-12-07T13:08:51;23.25;;;14.77;;
5752;SDS011;2901;42.140;24.760;2022-12-07T13:11:29;21.90;;;14.13;;
5752;SDS011;2901;42.140;24.760;2022-12-07T13:16:59;27.95;;;13.57;;
5752;SDS011;2901;42.140;24.760;2022-12-07T13:27:51;17.35;;;14.63;;
5752;SDS011;2901;42.140;24.760;2022-12-07T13:30:22;22.38;;;13.85;;
5752;SDS011;2901;42.140;24.760;2022-12-07T13:32:54;22.60;;;14.85;;
5752;SDS011;2901;42.140;24.760;2022-12-07T13:35:29;28.65;;;14.55;;
5752;SDS011;2901;42.140;24.760;2022-12-07T13:37:56;17.90;;;13.75;;
5752;SDS011;2901;42.140;24.760;2022-12-07T13:40:22;20.83;;;13.13;;
5752;SDS011;2901;42.140;24.760;2022-12-07T13:42:56;18.40;;;14.63;;
5752;SDS011;2901;42.140;24.760;2022-12-07T13:45:23;41.45;;;16.55;;
5752;SDS011;2901;42.140;24.760;2022-12-07T13:48:18;35.63;;;15.82;;
5752;SDS011;2901;42.140;24.760;2022-12-07T13:50:53;38.28;;;16.85;;
5752;SDS011;2901;42.140;24.760;2022-12-07T13:53:20;32.63;;;15.55;;
5752;SDS011;2901;42.140;24.760;2022-12-07T13:55:46;25.17;;;14.75;;
5752;SDS011;2901;42.140;24.760;2022-12-07T13:58:12;45.28;;;17.83;;
5752;SDS011;2901;42.140;24.760;2022-12-07T14:00:39;36.20;;;16.42;;
5752;SDS011;2901;42.140;24.760;2022-12-07T14:05:37;26.65;;;16.20;;
5752;SDS011;2901;42.140;24.760;2022-12-07T14:13:34;23.88;;;14.75;;
5752;SDS011;2901;42.140;24.760;2022-12-07T14:16:05;27.02;;;16.23;;
5752;SDS011;2901;42.140;24.760;2022-12-07T14:18:47;50.17;;;18.90;;
5752;SDS011;2901;42.140;24.760;2022-12-07T14:23:38;50.92;;;18.00;;
5752;SDS011;2901;42.140;24.760;2022-12-07T14:26:12;43.65;;;18.42;;
5752;SDS011;2901;42.140;24.760;2022-12-07T14:28:39;49.63;;;17.77;;
5752;SDS011;2901;42.140;24.760;2022-12-07T14:31:16;41.13;;;18.27;;
5752;SDS011;2901;42.140;24.760;2022-12-07T14:33:43;53.03;;;19.25;;
5752;SDS011;2901;42.140;24.760;2022-12-07T14:36:09;58.88;;;18.50;;
5752;SDS011;2901;42.140;24.760;2022-12-07T14:38:35;44.90;;;19.25;;
5752;SDS011;2901;42.140;24.760;2022-12-07T14:41:01;54.95;;;19.85;;
5752;SDS011;2901;42.140;24.760;2022-12-07T14:43:46;29.05;;;17.08;;
5752;SDS011;2901;42.140;24.760;2022-12-07T14:46:11;51.83;;;19.05;;
5752;SDS011;2901;42.140;24.760;2022-12-07T14:48:37;29.83;;;17.15;;
5752;SDS011;2901;42.140;24.760;2022-12-07T14:51:02;56.47;;;20.92;;
5752;SDS011;2901;42.140;24.760;2022-12-07T14:53:30;61.13;;;20.67;;
5752;SDS011;2901;42.140;24.760;2022-12-07T14:56:00;52.88;;;21.63;;
5752;SDS011;2901;42.140;24.760;2022-12-07T14:58:26;51.33;;;19.70;;
5752;SDS011;2901;42.140;24.760;2022-12-07T15:00:52;52.15;;;18.85;;
5752;SDS011;2901;42.140;24.760;2022-12-07T15:03:17;44.83;;;21.23;;
5752;SDS011;2901;42.140;24.760;2022-12-07T15:05:42;61.45;;;27.20;;
5752;SDS011;2901;42.140;24.760;2022-12-07T15:08:08;60.47;;;24.65;;
5752;SDS011;2901;42.140;24.760;2022-12-07T15:10:36;58.20;;;21.15;;
5752;SDS011;2901;42.140;24.760;2022-12-07T15:13:03;52.35;;;20.85;;
5752;SDS011;2901;42.140;24.760;2022-12-07T15:15:48;49.13;;;22.20;;
5752;SDS011;2901;42.140;24.760;2022-12-07T15:18:15;76.68;;;23.10;;
5752;SDS011;2901;42.140;24.760;2022-12-07T15:20:41;40.65;;;21.67;;
5752;SDS011;2901;42.140;24.760;2022-12-07T15:23:06;55.22;;;27.42;;
5752;SDS011;2901;42.140;24.760;2022-12-07T15:25:32;110.50;;;56.00;;
5752;SDS011;2901;42.140;24.760;2022-12-07T15:27:57;59.35;;;32.40;;
5752;SDS011;2901;42.140;24.760;2022-12-07T15:30:23;44.25;;;27.50;;
5752;SDS011;2901;42.140;24.760;2022-12-07T15:32:49;42.30;;;22.02;;
5752;SDS011;2901;42.140;24.760;2022-12-07T15:35:15;48.97;;;20.60;;
5752;SDS011;2901;42.140;24.760;2022-12-07T15:37:40;48.53;;;20.45;;
5752;SDS011;2901;42.140;24.760;2022-12-07T15:40:06;53.20;;;20.85;;
5752;SDS011;2901;42.140;24.760;2022-12-07T15:42:32;40.97;;;21.90;;
5752;SDS011;2901;42.140;24.760;2022-12-07T15:44:57;31.80;;;18.70;;
5752;SDS011;2901;42.140;24.760;2022-12-07T15:47:29;51.90;;;24.52;;
5752;SDS011;2901;42.140;24.760;2022-12-07T15:49:59;108.30;;;65.03;;
5752;SDS011;2901;42.140;24.760;2022-12-07T15:52:25;135.95;;;81.05;;
5752;SDS011;2901;42.140;24.760;2022-12-07T15:54:50;91.38;;;46.15;;
5752;SDS011;2901;42.140;24.760;2022-12-07T15:57:16;84.63;;;39.40;;
5752;SDS011;2901;42.140;24.760;2022-12-07T15:59:41;86.07;;;45.65;;
5752;SDS011;2901;42.140;24.760;2022-12-07T16:02:07;100.90;;;55.65;;
5752;SDS011;2901;42.140;24.760;2022-12-07T16:04:35;251.52;;;146.85;;
5752;SDS011;2901;42.140;24.760;2022-12-07T16:07:01;52.78;;;26.35;;
5752;SDS011;2901;42.140;24.760;2022-12-07T16:09:26;57.72;;;27.38;;
5752;SDS011;2901;42.140;24.760;2022-12-07T16:11:51;133.75;;;59.60;;
5752;SDS011;2901;42.140;24.760;2022-12-07T16:14:17;255.85;;;120.45;;
5752;SDS011;2901;42.140;24.760;2022-12-07T16:16:43;309.30;;;146.07;;
5752;SDS011;2901;42.140;24.760;2022-12-07T16:19:08;127.75;;;52.17;;
5752;SDS011;2901;42.140;24.760;2022-12-07T16:21:34;197.32;;;122.75;;
5752;SDS011;2901;42.140;24.760;2022-12-07T16:24:00;153.70;;;76.43;;
5752;SDS011;2901;42.140;24.760;2022-12-07T16:26:26;95.38;;;48.13;;
5752;SDS011;2901;42.140;24.760;2022-12-07T16:28:52;92.05;;;37.90;;
5752;SDS011;2901;42.140;24.760;2022-12-07T16:31:22;139.60;;;58.65;;
5752;SDS011;2901;42.140;24.760;2022-12-07T16:33:49;112.45;;;48.80;;
5752;SDS011;2901;42.140;24.760;2022-12-07T16:36:17;125.82;;;59.60;;
5752;SDS011;2901;42.140;24.760;2022-12-07T16:38:43;123.32;;;60.30;;
5752;SDS011;2901;42.140;24.760;2022-12-07T16:41:09;97.13;;;49.08;;
5752;SDS011;2901;42.140;24.760;2022-12-07T16:43:36;106.90;;;44.80;;
5752;SDS011;2901;42.140;24.760;2022-12-07T16:46:02;102.18;;;40.50;;
5752;SDS011;2901;42.140;24.760;2022-12-07T16:48:28;86.80;;;40.40;;
5752;SDS011;2901;42.140;24.760;2022-12-07T16:50:53;85.03;;;40.05;;
5752;SDS011;2901;42.140;24.760;2022-12-07T16:53:19;105.05;;;49.35;;
5752;SDS011;2901;42.140;24.760;2022-12-07T16:55:46;104.57;;;43.67;;
5752;SDS011;2901;42.140;24.760;2022-12-07T16:58:12;80.10;;;37.50;;
5752;SDS011;2901;42.140;24.760;2022-12-07T17:00:39;97.07;;;35.83;;